Time;durP1;ratioP1;P1;durP2;ratioP2;P2;SDS_P1;SDS_P2;PMS_P1;PMS_P2;Temp;Humidity;BMP_temperature;BMP_pressure;BME280_temperature;BME280_humidity;BME280_pressure;Samples;Min_cycle;Max_cycle;Signal;HPM_P1;HPM_P2
2024/01/04 00:00:45;;;;;;;4.10;1.55;;;9.10;99.90;;;;;;4136977;28;20042;-65
2024/01/04 00:02:46;;;;;;;4.38;1.50;;;9.10;99.90;;;;;;4143103;28;20133;-65
2024/01/04 00:04:47;;;;;;;6.50;1.95;;;9.10;99.90;;;;;;4134572;28;20412;-65
2024/01/04 00:06:47;;;;;;;5.15;1.63;;;9.10;99.90;;;;;;4137556;28;20394;-64
2024/01/04 00:08:48;;;;;;;5.72;1.70;;;9.10;99.90;;;;;;4138981;28;20113;-64
2024/01/04 00:10:48;;;;;;;5.13;1.80;;;9.20;99.90;;;;;;4138338;28;20572;-64
2024/01/04 00:12:51;;;;;;;4.10;1.70;;;9.20;99.90;;;;;;4139725;28;20093;-64
2024/01/04 00:14:51;;;;;;;6.55;2.08;;;9.20;99.90;;;;;;4139921;28;20038;-64
2024/01/04 00:16:52;;;;;;;8.02;2.28;;;9.20;99.90;;;;;;4133281;28;20490;-64
2024/01/04 00:18:52;;;;;;;5.18;1.75;;;9.20;99.90;;;;;;4138656;28;20375;-64
2024/01/04 00:20:53;;;;;;;5.82;2.17;;;9.20;99.90;;;;;;4138532;28;20042;-64
2024/01/04 00:22:54;;;;;;;4.70;1.92;;;9.20;99.90;;;;;;4142683;28;20049;-64
2024/01/04 00:24:54;;;;;;;5.13;2.10;;;9.20;99.90;;;;;;4132896;28;20050;-64
2024/01/04 00:26:55;;;;;;;5.00;2.17;;;9.20;99.90;;;;;;4140110;28;20049;-64
2024/01/04 00:28:57;;;;;;;3.38;1.70;;;9.20;99.90;;;;;;4133346;28;20046;-64
2024/01/04 00:30:57;;;;;;;5.55;2.22;;;9.20;99.90;;;;;;4135096;28;20407;-64
2024/01/04 00:32:58;;;;;;;8.65;2.17;;;9.20;99.90;;;;;;4138095;28;20037;-64
2024/01/04 00:34:59;;;;;;;6.75;2.33;;;9.20;99.90;;;;;;4141465;28;20122;-64
2024/01/04 00:36:59;;;;;;;9.82;2.85;;;9.30;99.90;;;;;;4135920;28;20056;-64
2024/01/04 00:39:00;;;;;;;6.55;2.72;;;9.30;99.90;;;;;;4132065;28;20178;-64
2024/01/04 00:41:02;;;;;;;7.45;2.60;;;9.30;99.90;;;;;;4139650;28;20483;-64
2024/01/04 00:43:04;;;;;;;8.80;2.80;;;9.30;99.90;;;;;;4143364;28;20034;-65
2024/01/04 00:45:05;;;;;;;4.28;1.73;;;9.30;99.90;;;;;;4133962;28;20483;-66
2024/01/04 00:47:05;;;;;;;3.45;1.67;;;9.30;99.90;;;;;;4133304;28;20529;-65
2024/01/04 00:49:06;;;;;;;4.90;2.15;;;9.30;99.90;;;;;;4136192;28;20041;-65
2024/01/04 00:51:07;;;;;;;6.03;2.45;;;9.30;99.90;;;;;;4138043;28;20464;-65
2024/01/04 00:53:07;;;;;;;8.00;2.22;;;9.30;99.90;;;;;;4137733;28;20409;-71
2024/01/04 00:55:08;;;;;;;5.03;2.42;;;9.30;99.90;;;;;;4139444;28;20101;-72
2024/01/04 00:57:09;;;;;;;7.05;2.78;;;9.30;99.90;;;;;;4139509;28;20045;-71
2024/01/04 00:59:09;;;;;;;9.05;2.72;;;9.30;99.90;;;;;;4143360;28;20376;-71
2024/01/04 01:01:10;;;;;;;8.07;2.45;;;9.20;99.90;;;;;;4142088;28;20073;-70
2024/01/04 01:03:10;;;;;;;6.00;2.13;;;9.20;99.90;;;;;;4140367;28;20097;-70
2024/01/04 01:05:11;;;;;;;6.75;2.03;;;9.20;99.90;;;;;;4137778;28;20498;-72
2024/01/04 01:07:12;;;;;;;6.18;1.95;;;9.10;99.90;;;;;;4135932;28;20038;-71
2024/01/04 01:09:14;;;;;;;3.13;1.42;;;9.20;99.90;;;;;;4135188;28;20398;-71
2024/01/04 01:11:15;;;;;;;3.55;1.60;;;9.20;99.90;;;;;;4136515;28;20038;-70
2024/01/04 01:13:20;;;;;;;7.03;1.60;;;9.10;99.90;;;;;;4137315;28;20066;-71
2024/01/04 01:15:20;;;;;;;3.80;1.45;;;9.20;99.90;;;;;;4136817;28;20037;-71
2024/01/04 01:17:21;;;;;;;3.22;1.17;;;9.10;99.90;;;;;;4143063;28;20510;-72
2024/01/04 01:19:21;;;;;;;5.57;1.65;;;9.10;99.90;;;;;;4139300;28;20461;-71
2024/01/04 01:21:22;;;;;;;3.97;1.73;;;9.10;99.90;;;;;;4137404;28;20068;-71
2024/01/04 01:23:22;;;;;;;3.70;1.42;;;9.10;99.90;;;;;;4136697;28;20125;-71
2024/01/04 01:25:23;;;;;;;4.43;1.20;;;9.10;99.90;;;;;;4138208;28;20116;-71
2024/01/04 01:27:25;;;;;;;2.35;1.20;;;9.10;99.90;;;;;;4139320;28;20417;-71
2024/01/04 01:29:25;;;;;;;2.53;1.10;;;9.10;99.90;;;;;;4131810;28;20129;-71
2024/01/04 01:31:26;;;;;;;1.40;1.08;;;9.10;99.90;;;;;;4129064;28;20050;-71
2024/01/04 01:33:26;;;;;;;2.10;1.35;;;9.10;99.90;;;;;;4138537;28;20108;-70
2024/01/04 01:35:27;;;;;;;7.38;1.92;;;9.10;99.90;;;;;;4133416;28;20065;-71
2024/01/04 01:37:28;;;;;;;5.15;1.60;;;9.10;99.90;;;;;;4141989;28;20381;-71
2024/01/04 01:39:28;;;;;;;3.55;1.40;;;9.00;99.90;;;;;;4138731;28;20034;-71
2024/01/04 01:41:29;;;;;;;2.97;1.33;;;9.10;99.90;;;;;;4137322;28;20046;-71
2024/01/04 01:43:29;;;;;;;4.03;1.38;;;9.00;99.90;;;;;;4133995;28;20034;-71
2024/01/04 01:45:30;;;;;;;3.85;1.30;;;9.00;99.90;;;;;;4134420;28;20538;-71
2024/01/04 01:47:31;;;;;;;3.25;1.58;;;9.00;99.90;;;;;;4129861;28;20038;-71
2024/01/04 01:49:32;;;;;;;3.58;1.17;;;9.00;99.90;;;;;;4137604;28;20494;-70
2024/01/04 01:51:33;;;;;;;3.25;1.40;;;9.00;99.90;;;;;;4136283;28;20117;-71
2024/01/04 01:53:34;;;;;;;4.00;1.02;;;9.00;99.90;;;;;;4147062;28;20080;-71
2024/01/04 01:55:35;;;;;;;3.85;1.48;;;9.00;99.90;;;;;;4140239;28;20050;-70
2024/01/04 01:57:36;;;;;;;5.93;1.45;;;9.00;99.90;;;;;;4135958;28;20474;-70
2024/01/04 01:59:37;;;;;;;5.32;1.73;;;9.00;99.90;;;;;;4138497;28;20119;-71
2024/01/04 02:01:38;;;;;;;5.18;1.73;;;9.00;99.90;;;;;;4138648;28;20501;-72
2024/01/04 02:03:39;;;;;;;5.10;1.45;;;9.00;99.90;;;;;;4138154;28;20054;-70
2024/01/04 02:05:42;;;;;;;2.67;1.67;;;9.00;99.90;;;;;;4138539;28;20510;-70
2024/01/04 02:07:43;;;;;;;1.90;1.13;;;9.00;99.90;;;;;;4139994;28;20033;-70
2024/01/04 02:09:44;;;;;;;6.97;1.67;;;8.90;99.90;;;;;;4140467;28;20139;-70
2024/01/04 02:11:45;;;;;;;3.38;1.40;;;8.90;99.90;;;;;;4135704;28;20121;-70
2024/01/04 02:13:45;;;;;;;5.20;1.48;;;9.00;99.90;;;;;;4141999;28;20397;-70
2024/01/04 02:15:47;;;;;;;2.70;1.35;;;9.00;99.90;;;;;;4134841;28;20438;-70
2024/01/04 02:17:48;;;;;;;3.13;1.23;;;9.00;99.90;;;;;;4137196;28;20045;-70
2024/01/04 02:19:49;;;;;;;1.73;1.20;;;9.00;99.90;;;;;;4143382;28;20038;-71
2024/01/04 02:21:49;;;;;;;7.72;2.33;;;9.00;99.90;;;;;;4140366;28;20038;-70
2024/01/04 02:23:50;;;;;;;3.53;1.75;;;9.00;99.90;;;;;;4143810;28;20161;-70
2024/01/04 02:25:51;;;;;;;5.50;2.13;;;9.10;99.90;;;;;;4133360;28;20096;-70
2024/01/04 02:27:51;;;;;;;6.47;1.98;;;9.00;99.90;;;;;;4137488;28;20034;-70
2024/01/04 02:29:52;;;;;;;7.13;1.80;;;9.00;99.90;;;;;;4140728;28;20498;-70
2024/01/04 02:31:52;;;;;;;5.75;1.98;;;9.00;99.90;;;;;;4142468;28;20584;-70
2024/01/04 02:33:53;;;;;;;8.52;2.10;;;9.00;99.90;;;;;;4136669;28;20076;-71
2024/01/04 02:35:54;;;;;;;3.40;1.48;;;8.90;99.90;;;;;;4135540;28;20493;-70
2024/01/04 02:37:55;;;;;;;4.55;1.70;;;8.90;99.90;;;;;;4143561;28;20441;-71
2024/01/04 02:39:56;;;;;;;8.00;2.10;;;8.90;99.90;;;;;;4139438;28;20052;-71
2024/01/04 02:41:57;;;;;;;5.07;1.58;;;8.90;99.90;;;;;;4140392;28;20121;-70
2024/01/04 02:43:57;;;;;;;6.70;1.60;;;8.90;99.90;;;;;;4122942;28;20038;-70
2024/01/04 02:45:58;;;;;;;16.67;1.77;;;8.90;99.90;;;;;;4141975;28;20127;-71
2024/01/04 02:47:58;;;;;;;7.03;1.60;;;8.90;99.90;;;;;;4140785;28;20046;-71
2024/01/04 02:49:59;;;;;;;4.13;1.80;;;8.80;99.90;;;;;;4138871;28;20046;-70
2024/01/04 02:52:00;;;;;;;5.45;1.50;;;8.90;99.90;;;;;;4141958;28;20121;-70
2024/01/04 02:54:00;;;;;;;5.13;1.35;;;8.80;99.90;;;;;;4141619;28;20073;-70
2024/01/04 02:56:01;;;;;;;3.97;0.93;;;8.80;99.90;;;;;;4141731;28;20495;-70
2024/01/04 02:58:01;;;;;;;6.22;1.63;;;8.80;99.90;;;;;;4143525;28;20038;-70
2024/01/04 03:00:03;;;;;;;4.03;1.35;;;8.80;99.90;;;;;;4137870;28;20065;-71
2024/01/04 03:02:04;;;;;;;4.53;1.08;;;8.80;99.90;;;;;;4142367;28;20049;-71
2024/01/04 03:04:05;;;;;;;2.00;0.70;;;8.80;99.90;;;;;;4141229;28;20458;-71
2024/01/04 03:06:05;;;;;;;1.40;0.82;;;8.80;99.90;;;;;;4141529;28;20042;-71
2024/01/04 03:08:06;;;;;;;4.20;0.88;;;8.80;99.90;;;;;;4141680;28;20038;-71
2024/01/04 03:10:07;;;;;;;4.32;1.00;;;8.80;99.90;;;;;;4137490;28;20513;-72
2024/01/04 03:12:08;;;;;;;3.17;0.88;;;8.80;99.90;;;;;;4142811;28;21973;-64
2024/01/04 03:14:09;;;;;;;4.45;0.85;;;8.80;99.90;;;;;;4140650;28;20053;-65
2024/01/04 03:16:10;;;;;;;1.88;1.08;;;8.80;99.90;;;;;;4137786;28;20041;-65
2024/01/04 03:18:10;;;;;;;2.45;0.70;;;8.80;99.90;;;;;;4137098;28;20593;-65
2024/01/04 03:20:11;;;;;;;2.90;0.82;;;8.90;99.90;;;;;;4142433;28;20089;-65
2024/01/04 03:22:11;;;;;;;1.80;1.10;;;8.90;99.90;;;;;;4132622;28;20030;-72
2024/01/04 03:24:12;;;;;;;3.45;1.15;;;8.90;99.90;;;;;;4137960;28;20050;-72
2024/01/04 03:26:13;;;;;;;1.25;0.82;;;8.90;99.90;;;;;;4137358;28;20033;-73
2024/01/04 03:28:13;;;;;;;4.53;1.15;;;8.90;99.90;;;;;;4138262;28;20399;-72
2024/01/04 03:30:14;;;;;;;2.05;1.10;;;8.90;99.90;;;;;;4135819;28;20113;-72
2024/01/04 03:32:15;;;;;;;1.90;1.00;;;9.00;99.90;;;;;;4138842;28;20026;-67
2024/01/04 03:34:16;;;;;;;3.67;1.15;;;9.00;99.90;;;;;;4142807;28;20394;-67
2024/01/04 03:36:16;;;;;;;5.43;1.73;;;9.00;99.90;;;;;;4139686;28;20097;-67
2024/01/04 03:38:17;;;;;;;3.60;1.58;;;9.00;99.90;;;;;;4140920;28;20522;-67
2024/01/04 03:40:18;;;;;;;2.95;1.40;;;9.10;99.90;;;;;;4139653;28;20037;-67
2024/01/04 03:42:19;;;;;;;3.10;1.55;;;9.10;99.90;;;;;;4135096;28;20058;-67
2024/01/04 03:44:20;;;;;;;2.90;1.60;;;9.10;99.90;;;;;;4140963;28;20439;-67
2024/01/04 03:46:20;;;;;;;5.15;1.50;;;9.10;99.90;;;;;;4137886;28;20391;-67
2024/01/04 03:48:21;;;;;;;6.05;2.13;;;9.10;99.90;;;;;;4140818;28;20042;-67
2024/01/04 03:50:21;;;;;;;3.78;1.80;;;9.10;99.90;;;;;;4139132;28;20030;-67
2024/01/04 03:52:22;;;;;;;4.13;1.75;;;9.10;99.90;;;;;;4141605;28;20022;-66
2024/01/04 03:54:22;;;;;;;4.50;1.67;;;9.10;99.90;;;;;;4135722;28;20038;-67
2024/01/04 03:56:23;;;;;;;2.28;1.30;;;9.20;99.90;;;;;;4139558;28;20034;-67
2024/01/04 03:58:23;;;;;;;5.13;2.00;;;9.20;99.90;;;;;;4137042;28;20040;-66
2024/01/04 04:00:24;;;;;;;6.70;2.45;;;9.20;99.90;;;;;;4132385;28;20042;-66
2024/01/04 04:02:25;;;;;;;6.50;2.28;;;9.20;99.90;;;;;;4135402;28;20033;-67
2024/01/04 04:04:25;;;;;;;5.22;2.10;;;9.20;99.90;;;;;;4139121;28;20038;-67
2024/01/04 04:06:26;;;;;;;6.15;2.40;;;9.20;99.90;;;;;;4141416;28;20045;-66
2024/01/04 04:08:26;;;;;;;6.57;2.17;;;9.20;99.90;;;;;;4140935;28;20041;-66
2024/01/04 04:10:27;;;;;;;9.50;3.10;;;9.30;99.90;;;;;;4147247;28;20038;-67
2024/01/04 04:12:28;;;;;;;13.02;3.17;;;9.30;99.90;;;;;;4138752;28;20395;-67
2024/01/04 04:14:29;;;;;;;9.13;2.50;;;9.30;99.90;;;;;;4133926;28;20030;-67
2024/01/04 04:16:30;;;;;;;10.90;3.10;;;9.20;99.90;;;;;;4131828;28;20585;-66
2024/01/04 04:18:30;;;;;;;4.68;2.08;;;9.30;99.90;;;;;;4156603;28;20029;-67
2024/01/04 04:20:31;;;;;;;9.73;2.90;;;9.30;99.90;;;;;;4135109;28;20065;-66
2024/01/04 04:22:31;;;;;;;8.88;2.25;;;9.20;99.90;;;;;;4138569;28;20116;-66
2024/01/04 04:24:32;;;;;;;6.43;2.28;;;9.30;99.90;;;;;;4144501;28;20038;-67
2024/01/04 04:26:33;;;;;;;6.85;2.40;;;9.30;99.90;;;;;;4135588;28;20030;-67
2024/01/04 04:28:33;;;;;;;9.30;2.55;;;9.30;99.90;;;;;;4141351;28;20076;-66
2024/01/04 04:30:34;;;;;;;10.77;2.50;;;9.30;99.90;;;;;;4129891;28;20034;-66
2024/01/04 04:32:36;;;;;;;4.32;2.40;;;9.30;99.90;;;;;;4141726;28;20046;-71
2024/01/04 04:34:36;;;;;;;8.15;2.13;;;9.20;99.90;;;;;;4131412;28;20100;-71
2024/01/04 04:36:37;;;;;;;12.30;2.92;;;9.20;99.90;;;;;;4138955;28;20034;-72
2024/01/04 04:38:38;;;;;;;6.40;2.28;;;9.20;99.90;;;;;;4139428;28;20052;-71
2024/01/04 04:40:39;;;;;;;7.30;2.40;;;9.20;99.90;;;;;;4132600;28;20546;-71
2024/01/04 04:42:39;;;;;;;3.95;2.10;;;9.20;99.90;;;;;;4141685;28;20218;-71
2024/01/04 04:44:40;;;;;;;8.55;2.20;;;9.20;99.90;;;;;;4132304;28;20051;-71
2024/01/04 04:46:40;;;;;;;6.53;1.95;;;9.20;99.90;;;;;;4138229;28;20544;-71
2024/01/04 04:48:41;;;;;;;9.20;2.20;;;9.20;99.90;;;;;;4139344;28;20052;-71
2024/01/04 04:50:41;;;;;;;5.32;1.58;;;9.20;99.90;;;;;;4134808;28;20022;-71
2024/01/04 04:52:42;;;;;;;3.58;1.80;;;9.20;99.90;;;;;;4133238;28;20105;-71
2024/01/04 04:54:43;;;;;;;3.10;1.65;;;9.20;99.90;;;;;;4137300;28;20026;-71
2024/01/04 04:56:43;;;;;;;6.72;2.05;;;9.20;99.90;;;;;;4138118;28;20057;-71
2024/01/04 04:58:44;;;;;;;7.05;1.80;;;9.20;99.90;;;;;;4128301;28;20501;-71
2024/01/04 05:00:44;;;;;;;2.90;1.75;;;9.20;99.90;;;;;;4131529;28;20112;-71
2024/01/04 05:02:45;;;;;;;4.07;1.92;;;9.20;99.90;;;;;;4137315;28;20045;-71
2024/01/04 05:04:46;;;;;;;3.60;1.90;;;9.20;99.90;;;;;;4136933;28;20566;-71
2024/01/04 05:06:46;;;;;;;4.38;1.88;;;9.20;99.90;;;;;;4134239;28;21585;-71
2024/01/04 05:08:47;;;;;;;4.13;1.98;;;9.20;99.90;;;;;;4140566;28;20053;-71
2024/01/04 05:10:47;;;;;;;3.50;1.90;;;9.20;99.90;;;;;;4132773;28;20058;-71
2024/01/04 05:12:48;;;;;;;3.50;1.77;;;9.20;99.90;;;;;;4136641;28;20081;-71
2024/01/04 05:14:49;;;;;;;3.25;1.90;;;9.20;99.90;;;;;;4139905;28;20514;-71
2024/01/04 05:16:50;;;;;;;8.93;3.38;;;9.20;99.90;;;;;;4139754;28;20034;-72
2024/01/04 05:18:50;;;;;;;9.18;3.28;;;9.20;99.90;;;;;;4137080;28;20084;-71
2024/01/04 05:20:51;;;;;;;7.82;2.83;;;9.20;99.90;;;;;;4136544;28;20049;-71
2024/01/04 05:22:51;;;;;;;9.25;3.28;;;9.20;99.90;;;;;;4143188;28;20478;-71
2024/01/04 05:24:52;;;;;;;7.15;3.10;;;9.20;99.90;;;;;;4140531;28;20117;-71
2024/01/04 05:26:53;;;;;;;7.10;3.60;;;9.20;99.90;;;;;;4142402;28;20561;-71
2024/01/04 05:28:53;;;;;;;8.00;4.18;;;9.20;99.90;;;;;;4136734;28;20422;-71
2024/01/04 05:30:54;;;;;;;7.75;3.60;;;9.20;99.90;;;;;;4138359;28;20112;-71
2024/01/04 05:32:54;;;;;;;7.03;3.90;;;9.20;99.90;;;;;;4140296;28;20038;-71
2024/01/04 05:34:55;;;;;;;10.35;4.35;;;9.20;99.90;;;;;;4133835;28;20027;-71
2024/01/04 05:36:56;;;;;;;12.05;4.82;;;9.20;99.90;;;;;;4151492;28;20038;-71
2024/01/04 05:38:56;;;;;;;10.10;3.92;;;9.30;99.90;;;;;;4137706;28;20042;-71
2024/01/04 05:40:57;;;;;;;7.43;4.22;;;9.30;99.90;;;;;;4141448;28;20497;-71
2024/01/04 05:42:58;;;;;;;9.38;4.03;;;9.30;99.90;;;;;;4134414;28;20034;-78
2024/01/04 05:44:59;;;;;;;7.80;5.03;;;9.30;99.90;;;;;;4138322;28;20038;-79
2024/01/04 05:46:59;;;;;;;12.57;5.07;;;9.30;99.90;;;;;;4129799;28;20046;-78
2024/01/04 05:49:00;;;;;;;12.52;5.15;;;9.30;99.90;;;;;;4139823;28;20049;-78
2024/01/04 05:51:01;;;;;;;9.07;4.32;;;9.30;99.90;;;;;;4135157;28;20042;-79
2024/01/04 05:53:01;;;;;;;8.48;4.60;;;9.30;99.90;;;;;;4143468;28;20450;-79
2024/01/04 05:55:02;;;;;;;7.55;4.15;;;9.40;99.90;;;;;;4144344;28;20117;-79
2024/01/04 05:57:03;;;;;;;6.95;4.55;;;9.40;99.90;;;;;;4140275;28;20402;-78
2024/01/04 05:59:03;;;;;;;7.88;4.40;;;9.40;99.90;;;;;;4139518;28;20038;-79
2024/01/04 06:01:05;;;;;;;8.88;4.47;;;9.40;99.90;;;;;;4140029;28;20042;-79
2024/01/04 06:03:05;;;;;;;10.02;3.83;;;9.40;99.90;;;;;;4140676;28;20033;-79
2024/01/04 06:05:06;;;;;;;7.47;4.15;;;9.40;99.90;;;;;;4139245;28;20037;-78
2024/01/04 06:07:07;;;;;;;6.93;3.95;;;9.40;99.90;;;;;;4138838;28;20082;-79
2024/01/04 06:09:07;;;;;;;4.85;3.35;;;9.40;99.90;;;;;;4138461;28;20505;-78
2024/01/04 06:11:09;;;;;;;6.65;3.40;;;9.40;99.90;;;;;;4137344;28;20383;-75
2024/01/04 06:13:10;;;;;;;5.73;3.47;;;9.40;99.90;;;;;;4141579;28;20034;-78
2024/01/04 06:15:10;;;;;;;5.30;3.33;;;9.40;99.90;;;;;;4136517;28;20190;-78
2024/01/04 06:17:11;;;;;;;6.13;3.42;;;9.40;99.90;;;;;;4141180;28;20041;-79
2024/01/04 06:19:12;;;;;;;7.70;3.08;;;9.40;99.90;;;;;;4142103;28;20490;-78
2024/01/04 06:21:12;;;;;;;6.38;3.38;;;9.40;99.90;;;;;;4130641;28;20039;-78
2024/01/04 06:23:13;;;;;;;5.10;2.85;;;9.40;99.90;;;;;;4142727;28;20497;-78
2024/01/04 06:25:13;;;;;;;6.60;3.03;;;9.40;99.90;;;;;;4141170;28;20066;-78
2024/01/04 06:27:14;;;;;;;7.68;2.88;;;9.40;99.90;;;;;;4139913;28;20034;-78
2024/01/04 06:29:14;;;;;;;7.80;3.28;;;9.40;99.90;;;;;;4137759;28;20033;-79
2024/01/04 06:31:15;;;;;;;6.13;2.88;;;9.40;99.90;;;;;;4137818;28;20042;-78
2024/01/04 06:33:17;;;;;;;4.60;2.75;;;9.40;99.90;;;;;;4137336;28;20034;-78
2024/01/04 06:35:17;;;;;;;5.25;2.53;;;9.40;99.90;;;;;;4141594;28;20034;-78
2024/01/04 06:37:18;;;;;;;5.40;2.38;;;9.40;99.90;;;;;;4140255;28;20034;-78
2024/01/04 06:39:18;;;;;;;4.10;2.22;;;9.40;99.90;;;;;;4146170;28;20089;-78
2024/01/04 06:41:20;;;;;;;4.57;2.33;;;9.40;99.90;;;;;;4143393;28;20030;-79
2024/01/04 06:43:20;;;;;;;4.30;2.20;;;9.30;99.90;;;;;;4142972;28;20479;-78
2024/01/04 06:45:25;;;;;;;3.72;2.63;;;9.30;99.90;;;;;;4145052;28;20026;-78
2024/01/04 06:47:25;;;;;;;8.40;2.63;;;9.30;99.90;;;;;;4137435;28;20042;-78
2024/01/04 06:49:26;;;;;;;4.13;1.88;;;9.30;99.90;;;;;;4143528;28;20091;-79
2024/01/04 06:51:26;;;;;;;4.05;2.10;;;9.30;99.90;;;;;;4144208;28;20041;-64
2024/01/04 06:53:27;;;;;;;3.28;1.95;;;9.30;99.90;;;;;;4139989;28;20080;-70
2024/01/04 06:55:28;;;;;;;5.32;2.47;;;9.30;99.90;;;;;;4139085;28;20127;-71
2024/01/04 06:57:28;;;;;;;4.90;2.25;;;9.30;99.90;;;;;;4144001;28;20038;-70
2024/01/04 06:59:29;;;;;;;4.68;2.20;;;9.30;99.90;;;;;;4135835;28;20038;-70
2024/01/04 07:01:29;;;;;;;3.88;1.98;;;9.30;99.90;;;;;;4130222;28;20569;-71
2024/01/04 07:03:30;;;;;;;1.60;1.40;;;9.30;99.90;;;;;;4144908;28;20041;-71
2024/01/04 07:05:30;;;;;;;4.53;1.63;;;9.30;99.90;;;;;;4140104;28;20042;-71
2024/01/04 07:07:32;;;;;;;5.40;1.85;;;9.20;99.90;;;;;;4145169;28;20106;-71
2024/01/04 07:09:35;;;;;;;5.03;2.15;;;9.30;99.90;;;;;;4142618;28;20046;-71
2024/01/04 07:11:36;;;;;;;4.63;2.03;;;9.20;99.90;;;;;;4147073;28;20126;-71
2024/01/04 07:13:36;;;;;;;7.07;2.35;;;9.20;99.90;;;;;;4147552;28;20034;-70
2024/01/04 07:15:37;;;;;;;3.10;1.85;;;9.20;99.90;;;;;;4141799;28;20041;-70
2024/01/04 07:17:38;;;;;;;2.92;1.50;;;9.20;99.90;;;;;;4143941;28;20033;-70
2024/01/04 07:19:42;;;;;;;4.75;1.83;;;9.20;99.90;;;;;;4146979;28;20037;-71
2024/01/04 07:21:43;;;;;;;6.07;2.30;;;9.20;99.90;;;;;;4136558;28;20052;-71
2024/01/04 07:23:44;;;;;;;3.38;1.83;;;9.20;99.90;;;;;;4147744;28;20428;-71
2024/01/04 07:25:44;;;;;;;6.70;1.95;;;9.20;99.90;;;;;;4146488;28;20034;-71
2024/01/04 07:27:45;;;;;;;3.67;1.80;;;9.20;99.90;;;;;;4139495;28;20034;-69
2024/01/04 07:29:46;;;;;;;7.03;2.38;;;9.20;99.90;;;;;;4141422;28;20501;-71
2024/01/04 07:31:47;;;;;;;3.78;2.20;;;9.20;99.90;;;;;;4145189;28;20509;-71
2024/01/04 07:33:48;;;;;;;4.18;1.70;;;9.20;99.90;;;;;;4140237;28;20042;-70
2024/01/04 07:35:49;;;;;;;3.03;1.60;;;9.10;99.90;;;;;;4129603;28;20050;-70
2024/01/04 07:37:49;;;;;;;3.13;1.52;;;9.10;99.90;;;;;;4137178;28;20060;-70
2024/01/04 07:39:50;;;;;;;2.85;1.40;;;9.20;99.90;;;;;;4141289;28;20498;-70
2024/01/04 07:41:50;;;;;;;2.53;1.70;;;9.20;99.90;;;;;;4141845;28;20037;-70
2024/01/04 07:43:51;;;;;;;3.38;1.50;;;9.10;99.90;;;;;;4138811;28;20044;-69
2024/01/04 07:45:52;;;;;;;4.65;1.40;;;9.10;99.90;;;;;;4144053;28;20041;-69
2024/01/04 07:47:52;;;;;;;3.85;1.55;;;9.10;99.90;;;;;;4140763;28;20038;-69
2024/01/04 07:49:53;;;;;;;1.88;1.35;;;9.10;99.90;;;;;;4142749;28;20040;-69
2024/01/04 07:51:54;;;;;;;2.75;1.40;;;9.10;99.90;;;;;;4134574;28;20034;-70
2024/01/04 07:53:54;;;;;;;2.42;1.48;;;9.10;99.90;;;;;;4141030;28;20049;-70
2024/01/04 07:55:55;;;;;;;3.10;1.80;;;9.20;99.90;;;;;;4141565;28;20045;-69
2024/01/04 07:57:55;;;;;;;3.40;1.55;;;9.10;99.90;;;;;;4140997;28;20065;-70
2024/01/04 07:59:56;;;;;;;2.67;1.00;;;9.10;99.90;;;;;;4141852;28;20041;-70
2024/01/04 08:01:57;;;;;;;5.43;1.98;;;9.10;99.90;;;;;;4144960;28;20053;-70
2024/01/04 08:03:59;;;;;;;3.10;1.65;;;9.10;99.90;;;;;;4144078;28;20041;-71
2024/01/04 08:05:59;;;;;;;4.85;1.23;;;9.10;99.90;;;;;;4143598;28;20053;-71
2024/01/04 08:08:00;;;;;;;2.78;1.30;;;9.10;99.90;;;;;;4130692;28;20034;-71
2024/01/04 08:10:01;;;;;;;2.67;1.38;;;9.10;99.90;;;;;;4130603;28;20526;-71
2024/01/04 08:12:01;;;;;;;2.65;1.27;;;9.10;99.90;;;;;;4134199;28;20383;-71
2024/01/04 08:14:02;;;;;;;3.47;1.30;;;9.10;99.90;;;;;;4142329;28;20731;-71
2024/01/04 08:16:03;;;;;;;2.90;1.15;;;9.10;99.90;;;;;;4131258;28;20058;-72
2024/01/04 08:18:04;;;;;;;3.13;1.30;;;9.20;99.90;;;;;;4137503;28;20038;-72
2024/01/04 08:20:05;;;;;;;3.70;1.85;;;9.10;99.90;;;;;;4142133;28;20551;-72
2024/01/04 08:22:05;;;;;;;3.15;1.63;;;9.10;99.90;;;;;;4141476;28;20037;-73
2024/01/04 08:24:06;;;;;;;6.88;1.70;;;9.10;99.90;;;;;;4136421;28;20422;-72
2024/01/04 08:26:07;;;;;;;3.17;1.50;;;9.10;99.90;;;;;;4138015;28;20038;-72
2024/01/04 08:28:09;;;;;;;5.72;2.00;;;9.10;99.90;;;;;;4130466;28;20064;-72
2024/01/04 08:30:10;;;;;;;2.78;1.67;;;9.10;99.90;;;;;;4137637;28;20034;-72
2024/01/04 08:32:11;;;;;;;2.05;1.50;;;9.10;99.90;;;;;;4138626;28;20510;-72
2024/01/04 08:34:11;;;;;;;2.63;1.58;;;9.10;99.90;;;;;;4137028;28;20026;-71
2024/01/04 08:36:12;;;;;;;4.22;1.95;;;9.10;99.90;;;;;;4136574;28;20060;-72
2024/01/04 08:38:12;;;;;;;5.90;2.30;;;9.10;99.90;;;;;;4138392;28;20581;-72
2024/01/04 08:40:13;;;;;;;5.38;2.20;;;9.10;99.90;;;;;;4137759;28;20502;-72
2024/01/04 08:42:14;;;;;;;3.88;2.25;;;9.10;99.90;;;;;;4133477;28;20046;-73
2024/01/04 08:44:15;;;;;;;5.07;2.50;;;9.10;99.90;;;;;;4136930;28;20038;-72
2024/01/04 08:46:16;;;;;;;4.93;2.30;;;9.10;99.90;;;;;;4134931;28;20061;-73
2024/01/04 08:48:16;;;;;;;6.55;2.40;;;9.10;99.90;;;;;;4135671;28;20060;-73
2024/01/04 08:50:17;;;;;;;5.00;2.70;;;9.20;99.90;;;;;;4139015;28;20145;-73
2024/01/04 08:52:18;;;;;;;5.35;2.72;;;9.20;99.90;;;;;;4152189;28;20131;-73
2024/01/04 08:54:18;;;;;;;5.18;2.75;;;9.20;99.90;;;;;;4133720;28;20675;-73
2024/01/04 08:56:19;;;;;;;2.80;1.98;;;9.20;99.90;;;;;;4133529;28;20424;-73
2024/01/04 08:58:19;;;;;;;6.38;3.88;;;9.20;99.90;;;;;;4135527;28;20042;-72
2024/01/04 09:00:20;;;;;;;7.13;3.33;;;9.20;99.90;;;;;;4136489;28;20632;-72
2024/01/04 09:02:21;;;;;;;9.02;4.18;;;9.20;99.90;;;;;;4137693;28;20029;-72
2024/01/04 09:04:21;;;;;;;7.22;3.53;;;9.20;99.90;;;;;;4134775;28;20042;-73
2024/01/04 09:06:22;;;;;;;7.03;3.20;;;9.20;99.90;;;;;;4134099;28;20201;-73
2024/01/04 09:08:23;;;;;;;9.25;4.22;;;9.20;99.90;;;;;;4143941;28;20030;-73
2024/01/04 09:10:24;;;;;;;7.72;3.75;;;9.20;99.90;;;;;;4145619;28;20041;-73
2024/01/04 09:12:26;;;;;;;7.22;3.28;;;9.20;99.90;;;;;;4145986;28;20128;-71
2024/01/04 09:14:27;;;;;;;9.18;3.35;;;9.20;99.90;;;;;;4146235;28;20125;-71
2024/01/04 09:16:28;;;;;;;6.40;2.90;;;9.20;99.90;;;;;;4145526;28;20034;-71
2024/01/04 09:18:29;;;;;;;6.60;3.17;;;9.20;99.90;;;;;;4146184;28;20034;-71
2024/01/04 09:20:29;;;;;;;5.97;3.25;;;9.20;99.90;;;;;;4145048;28;20037;-71
2024/01/04 09:22:30;;;;;;;5.70;3.03;;;9.20;99.90;;;;;;4146176;28;22597;-71
2024/01/04 09:24:32;;;;;;;7.05;2.90;;;9.20;99.90;;;;;;4145943;28;20045;-71
2024/01/04 09:26:32;;;;;;;4.00;2.55;;;9.20;99.90;;;;;;4145487;28;20478;-71
2024/01/04 09:28:33;;;;;;;7.75;3.88;;;9.20;99.90;;;;;;4143894;28;20033;-71
2024/01/04 09:30:33;;;;;;;5.20;2.78;;;9.20;99.90;;;;;;4145170;28;20026;-70
2024/01/04 09:32:34;;;;;;;7.10;2.72;;;9.20;99.90;;;;;;4145862;28;20030;-70
2024/01/04 09:34:35;;;;;;;5.90;2.50;;;9.20;99.90;;;;;;4145976;28;20026;-70
2024/01/04 09:36:35;;;;;;;4.82;2.95;;;9.20;99.90;;;;;;4144911;28;20030;-70
2024/01/04 09:38:36;;;;;;;9.90;2.60;;;9.20;99.90;;;;;;4145764;28;20030;-71
2024/01/04 09:40:37;;;;;;;4.20;2.22;;;9.20;99.90;;;;;;4145181;28;20493;-70
2024/01/04 09:42:40;;;;;;;9.30;3.00;;;9.20;99.90;;;;;;4145936;28;20474;-71
2024/01/04 09:44:42;;;;;;;5.30;2.72;;;9.20;99.90;;;;;;4145575;28;20045;-70
2024/01/04 09:46:43;;;;;;;4.07;2.50;;;9.20;99.90;;;;;;4145450;28;20466;-71
2024/01/04 09:48:48;;;;;;;5.30;2.30;;;9.20;99.90;;;;;;4145461;28;20121;-70
2024/01/04 09:50:48;;;;;;;4.40;2.13;;;9.20;99.90;;;;;;4145412;28;20164;-71
2024/01/04 09:52:56;;;;;;;8.60;2.05;;;9.20;99.90;;;;;;4145886;28;20034;-70
2024/01/04 09:54:58;;;;;;;5.43;1.90;;;9.20;99.90;;;;;;4144042;28;20069;-71
2024/01/04 09:57:00;;;;;;;3.22;2.03;;;9.20;99.90;;;;;;4145184;28;20113;-70
2024/01/04 09:59:01;;;;;;;4.32;1.85;;;9.20;99.90;;;;;;4145805;28;20041;-71
2024/01/04 10:01:03;;;;;;;3.33;1.90;;;9.20;99.90;;;;;;4145219;28;20046;-71
2024/01/04 10:03:07;;;;;;;5.53;2.20;;;9.20;99.90;;;;;;4145834;28;20590;-70
2024/01/04 10:05:17;;;;;;;3.90;2.15;;;9.20;99.90;;;;;;4145199;28;20026;-71
2024/01/04 10:07:33;;;;;;;4.50;1.60;;;9.20;99.90;;;;;;4143699;28;20038;-70
2024/01/04 10:09:46;;;;;;;3.42;1.58;;;9.20;99.90;;;;;;4145754;28;20100;-70
2024/01/04 10:12:05;;;;;;;;;;;9.30;99.90;;;;;;4145323;28;20034;-70
2024/01/04 10:14:07;;;;;;;3.35;1.50;;;9.30;99.90;;;;;;4144558;28;20353;-70
2024/01/04 10:16:07;;;;;;;3.28;1.90;;;9.30;99.90;;;;;;4130899;28;20030;-70
2024/01/04 10:18:12;;;;;;;3.17;1.50;;;9.30;99.90;;;;;;4129797;28;20041;-70
2024/01/04 10:20:13;;;;;;;2.65;1.33;;;9.30;99.90;;;;;;4126291;28;20431;-70
2024/01/04 10:22:15;;;;;;;1.88;1.40;;;9.30;99.90;;;;;;4131738;28;20349;-70
2024/01/04 10:24:23;;;;;;;5.72;1.80;;;9.30;99.90;;;;;;4135668;28;20510;-70
2024/01/04 10:26:23;;;;;;;2.05;1.27;;;9.30;99.90;;;;;;4134526;28;20490;-70
2024/01/04 10:28:24;;;;;;;4.03;1.33;;;9.30;99.90;;;;;;4123309;28;20133;-70
2024/01/04 10:30:26;;;;;;;3.33;1.52;;;9.30;99.90;;;;;;4128844;28;20696;-71
2024/01/04 10:32:26;;;;;;;3.10;1.70;;;9.40;99.90;;;;;;4130213;28;20062;-70
2024/01/04 10:34:27;;;;;;;3.65;1.60;;;9.40;99.90;;;;;;4130546;28;20046;-71
2024/01/04 10:36:28;;;;;;;2.90;1.65;;;9.40;99.90;;;;;;4130919;28;20049;-70
2024/01/04 10:38:32;;;;;;;2.60;1.10;;;9.40;99.90;;;;;;4128279;28;20493;-70